Time;durP1;ratioP1;P1;durP2;ratioP2;P2;SDS_P1;SDS_P2;PMS_P1;PMS_P2;Temp;Humidity;BMP_temperature;BMP_pressure;BME280_temperature;BME280_humidity;BME280_pressure;Samples;Min_cycle;Max_cycle;Signal;HPM_P1;HPM_P2
2023/10/09 00:03:01;;;;;;;18.27;5.57;;;;;;;21.70;100.00;96806.88;5088183;28;20032;-95
2023/10/09 00:06:04;;;;;;;14.50;5.77;;;;;;;21.40;100.00;96802.09;5132571;28;20004;-95
2023/10/09 00:08:22;;;;;;;15.87;6.23;;;;;;;21.25;100.00;96806.88;5131988;28;20062;-94
2023/10/09 00:10:52;;;;;;;15.50;5.57;;;;;;;21.46;100.00;96803.09;5103384;28;20028;-94
2023/10/09 00:13:19;;;;;;;11.00;5.33;;;;;;;21.41;100.00;96799.19;5105986;28;20028;-94
2023/10/09 00:16:17;;;;;;;17.77;5.37;;;;;;;21.14;100.00;96803.00;5098662;28;20061;-95
2023/10/09 00:18:46;;;;;;;14.73;5.83;;;;;;;21.03;100.00;96803.69;5087617;28;20031;-93
2023/10/09 00:21:22;;;;;;;13.00;4.57;;;;;;;21.46;100.00;96793.19;5091180;28;20104;-94
2023/10/09 00:23:55;;;;;;;17.43;6.37;;;;;;;21.50;100.00;96796.28;5113154;28;20027;-94
2023/10/09 00:26:21;;;;;;;14.38;6.15;;;;;;;21.55;100.00;96794.59;5120456;28;20024;-95
2023/10/09 00:28:51;;;;;;;12.03;5.20;;;;;;;21.38;100.00;96783.56;5099582;28;20031;-94
2023/10/09 00:31:26;;;;;;;16.83;6.37;;;;;;;21.54;100.00;96790.28;5099373;28;20027;-94
2023/10/09 00:33:52;;;;;;;16.77;6.13;;;;;;;21.17;100.00;96795.38;5098279;28;20046;-94
2023/10/09 00:36:27;;;;;;;14.70;5.50;;;;;;;21.07;100.00;96796.88;5099146;28;20446;-94
2023/10/09 00:38:53;;;;;;;16.83;6.10;;;;;;;21.24;100.00;96791.84;5099243;28;20028;-94
2023/10/09 00:41:20;;;;;;;15.00;5.90;;;;;;;21.10;100.00;96786.56;5099059;28;20144;-95
2023/10/09 00:44:07;;;;;;;13.07;6.10;;;;;;;20.94;100.00;96790.53;5098392;28;20027;-94
2023/10/09 00:46:34;;;;;;;17.57;5.73;;;;;;;20.90;100.00;96786.63;5097917;28;20038;-95
2023/10/09 00:49:02;;;;;;;18.00;7.03;;;;;;;20.46;100.00;96793.50;5097418;28;20031;-94
2023/10/09 00:51:34;;;;;;;18.50;5.43;;;;;;;20.59;100.00;96778.47;5096958;28;20051;-94
2023/10/09 00:54:07;;;;;;;19.40;6.20;;;;;;;20.39;100.00;96773.19;5097569;28;20023;-94
2023/10/09 00:56:43;;;;;;;11.65;5.63;;;;;;;20.75;100.00;96771.88;5097108;28;20047;-94
2023/10/09 00:59:14;;;;;;;16.13;6.57;;;;;;;20.65;100.00;96775.78;5097420;28;20023;-94
2023/10/09 01:02:04;;;;;;;18.33;6.30;;;;;;;20.51;100.00;96771.53;5111385;28;20015;-95
2023/10/09 01:04:37;;;;;;;17.20;6.43;;;;;;;20.69;100.00;96762.84;5109296;28;20043;-94
2023/10/09 01:07:16;;;;;;;13.97;6.10;;;;;;;20.62;100.00;96760.22;5097813;28;20016;-95
2023/10/09 01:09:45;;;;;;;16.83;6.97;;;;;;;20.42;100.00;96749.53;5091360;28;20023;-95
2023/10/09 01:12:20;;;;;;;16.30;6.33;;;;;;;20.68;100.00;96745.16;5097925;28;20045;-94
2023/10/09 01:14:52;;;;;;;16.07;6.03;;;;;;;20.74;100.00;96748.84;5107044;28;20119;-94
2023/10/09 01:17:29;;;;;;;14.77;5.70;;;;;;;20.72;100.00;96746.38;5094469;28;20122;-94
2023/10/09 01:19:56;;;;;;;13.50;5.53;;;;;;;20.92;100.00;96741.81;5114595;28;20038;-95
2023/10/09 01:22:22;;;;;;;13.53;7.07;;;;;;;21.02;100.00;96745.84;5115011;28;20028;-94
2023/10/09 01:24:50;;;;;;;14.47;5.60;;;;;;;20.97;100.00;96740.34;5094117;28;20019;-94
2023/10/09 01:27:15;;;;;;;20.37;5.80;;;;;;;20.90;100.00;96741.19;5115610;28;20023;-95
2023/10/09 01:29:56;;;;;;;15.17;5.97;;;;;;;21.10;100.00;96740.28;5114018;28;20023;-95
2023/10/09 01:32:26;;;;;;;15.40;5.67;;;;;;;21.39;100.00;96739.75;5097725;28;20030;-94
2023/10/09 01:34:54;;;;;;;15.20;5.47;;;;;;;21.24;100.00;96735.69;5093898;28;20032;-94
2023/10/09 01:37:29;;;;;;;17.37;6.60;;;;;;;21.37;100.00;96738.31;5110424;28;20084;-94
2023/10/09 01:40:15;;;;;;;17.43;6.33;;;;;;;21.21;100.00;96738.78;5087644;28;20099;-94
2023/10/09 01:42:46;;;;;;;18.70;5.83;;;;;;;21.07;100.00;96744.19;5114109;28;20113;-94
2023/10/09 01:47:56;;;;;;;20.33;5.88;;;;;;;20.82;100.00;96733.38;5113812;28;20034;-94
2023/10/09 01:50:27;;;;;;;15.73;5.60;;;;;;;20.76;100.00;96726.25;5096935;28;20028;-93
2023/10/09 01:52:52;;;;;;;20.70;5.93;;;;;;;20.85;100.00;96724.13;5097649;28;20025;-95
2023/10/09 01:58:46;;;;;;;18.03;5.07;;;;;;;21.01;100.00;96718.31;5102242;28;20039;-94
2023/10/09 02:00:49;;;;;;;17.17;5.57;;;;;;;21.14;100.00;96714.75;5106690;28;20038;-94
2023/10/09 02:03:17;;;;;;;18.37;5.97;;;;;;;21.56;100.00;96710.63;5098212;28;20011;-94
2023/10/09 02:05:43;;;;;;;17.87;6.10;;;;;;;21.53;100.00;96707.53;5095245;28;20030;-94
2023/10/09 02:08:10;;;;;;;18.17;6.20;;;;;;;21.51;100.00;96707.75;5096292;28;20032;-94
2023/10/09 02:10:37;;;;;;;19.40;5.13;;;;;;;21.53;99.84;96721.75;5113423;28;20024;-94
2023/10/09 02:13:11;;;;;;;18.93;6.33;;;;;;;21.46;100.00;96718.28;5116384;28;20034;-94
2023/10/09 02:15:51;;;;;;;13.60;5.57;;;;;;;21.55;98.45;96722.34;5100291;28;20043;-93
2023/10/09 02:23:31;;;;;;;15.73;5.47;;;;;;;21.30;100.00;96710.75;5111116;28;20028;-94
2023/10/09 02:25:57;;;;;;;16.60;5.63;;;;;;;21.46;95.67;96709.44;5086763;28;20081;-94
2023/10/09 02:28:23;;;;;;;14.27;4.90;;;;;;;21.49;96.31;96704.47;5097592;28;20111;-94
2023/10/09 02:30:49;;;;;;;14.83;5.50;;;;;;;21.50;97.17;96699.97;5097226;28;20022;-94
2023/10/09 02:33:18;;;;;;;24.17;6.77;;;;;;;21.46;95.70;96710.25;5096008;28;20080;-95
2023/10/09 02:35:45;;;;;;;23.87;6.80;;;;;;;21.60;93.89;96706.47;5092411;28;20050;-94
2023/10/09 02:38:14;;;;;;;22.27;5.33;;;;;;;22.01;92.00;96710.44;5120171;28;20032;-94
2023/10/09 02:41:28;;;;;;;17.97;6.30;;;;;;;21.65;93.93;96698.59;5120138;28;20020;-95
2023/10/09 02:43:40;;;;;;;15.77;5.30;;;;;;;21.91;90.86;96695.94;5104972;27;20031;-94
2023/10/09 02:46:40;;;;;;;19.57;6.13;;;;;;;21.60;91.26;96701.09;5110188;28;20012;-93
2023/10/09 02:48:58;;;;;;;20.97;6.00;;;;;;;21.64;90.10;96690.78;5104993;28;20032;-94
2023/10/09 02:53:59;;;;;;;18.63;6.27;;;;;;;21.78;87.50;96689.63;5112468;28;20019;-94
2023/10/09 02:56:43;;;;;;;23.45;6.18;;;;;;;21.89;90.84;96696.94;5121237;28;20031;-94
2023/10/09 02:59:09;;;;;;;19.80;6.47;;;;;;;21.83;87.38;96694.31;5095089;28;20024;-94
2023/10/09 03:01:37;;;;;;;15.77;5.53;;;;;;;21.51;90.70;96696.22;5103993;28;20031;-94
2023/10/09 03:04:05;;;;;;;20.67;6.43;;;;;;;21.78;88.20;96695.00;5116309;28;20032;-95
2023/10/09 03:06:35;;;;;;;25.97;5.43;;;;;;;21.82;85.41;96693.50;5115659;27;20026;-94
2023/10/09 03:09:16;;;;;;;20.00;5.87;;;;;;;21.46;88.85;96690.69;5109041;28;20032;-95
2023/10/09 03:11:47;;;;;;;23.20;6.60;;;;;;;21.48;88.45;96689.44;5109020;28;20043;-94
2023/10/09 03:14:14;;;;;;;18.07;5.83;;;;;;;21.59;86.81;96679.91;5136717;27;20024;-95
2023/10/09 03:16:40;;;;;;;21.13;6.53;;;;;;;21.84;84.66;96685.28;5121029;28;20024;-94
2023/10/09 03:19:06;;;;;;;24.43;7.10;;;;;;;21.64;86.35;96675.53;5119269;28;20102;-94
2023/10/09 03:21:31;;;;;;;32.47;7.37;;;;;;;21.64;85.67;96680.09;5105530;28;20115;-94
2023/10/09 03:23:57;;;;;;;20.07;5.93;;;;;;;21.62;86.12;96676.78;5100974;28;20012;-95
2023/10/09 03:26:25;;;;;;;23.47;6.87;;;;;;;21.39;86.51;96675.53;5102498;28;20016;-93
2023/10/09 03:28:55;;;;;;;20.83;6.07;;;;;;;21.45;87.54;96670.34;5103080;28;20040;-94
2023/10/09 03:31:22;;;;;;;23.13;7.50;;;;;;;21.63;85.61;96667.75;5099601;28;20034;-94
2023/10/09 03:33:48;;;;;;;23.10;7.70;;;;;;;21.73;84.17;96667.22;5100128;28;20087;-93
2023/10/09 03:36:16;;;;;;;21.93;6.47;;;;;;;21.62;85.21;96671.44;5121205;27;20024;-94
2023/10/09 03:38:42;;;;;;;22.07;7.60;;;;;;;21.80;83.80;96668.00;5101617;28;20087;-94
2023/10/09 03:41:12;;;;;;;26.30;7.10;;;;;;;21.75;84.78;96665.16;5109447;28;20035;-94
2023/10/09 03:43:39;;;;;;;22.47;7.20;;;;;;;21.50;87.01;96670.53;5124276;28;20008;-94
2023/10/09 03:46:32;;;;;;;24.43;6.13;;;;;;;21.67;84.82;96673.47;5123906;28;20004;-94
2023/10/09 03:49:00;;;;;;;12.25;3.88;;;;;;;21.81;82.58;96670.47;5111204;28;20027;-94
2023/10/09 03:51:29;;;;;;;24.60;5.67;;;;;;;21.46;85.02;96669.28;5127477;28;20118;-93
2023/10/09 03:53:55;;;;;;;16.97;6.10;;;;;;;21.75;82.16;96671.31;5116632;28;20040;-95
2023/10/09 03:56:21;;;;;;;23.40;6.87;;;;;;;21.22;87.49;96670.88;5116835;28;20111;-94
2023/10/09 03:58:49;;;;;;;23.57;5.30;;;;;;;21.23;84.81;96673.34;5099806;28;20095;-94
2023/10/09 04:01:29;;;;;;;22.93;6.93;;;;;;;21.12;86.68;96676.69;5099590;28;20126;-94
2023/10/09 04:04:23;;;;;;;20.27;5.30;;;;;;;21.49;81.97;96669.69;5116628;28;20026;-95
2023/10/09 04:06:51;;;;;;;25.77;6.35;;;;;;;21.24;84.44;96679.50;5098663;28;20873;-95
2023/10/09 04:11:56;;;;;;;22.40;5.23;;;;;;;21.68;84.76;96681.28;5118705;28;20107;-95
2023/10/09 04:14:34;;;;;;;22.73;5.63;;;;;;;21.53;84.25;96681.59;5133655;27;20385;-95
2023/10/09 04:17:32;;;;;;;26.73;6.50;;;;;;;21.71;82.17;96683.53;5097962;28;20397;-95
2023/10/09 04:22:42;;;;;;;19.63;5.23;;;;;;;21.12;86.11;96680.19;5114798;28;20112;-94
2023/10/09 04:25:14;;;;;;;23.10;5.30;;;;;;;21.31;83.55;96682.97;5099452;28;20020;-93
2023/10/09 04:27:46;;;;;;;20.02;5.82;;;;;;;21.10;84.48;96681.44;5098040;28;20480;-93
2023/10/09 04:30:15;;;;;;;23.33;5.57;;;;;;;21.17;84.56;96676.88;5099061;28;20035;-94
2023/10/09 04:32:45;;;;;;;23.63;5.50;;;;;;;21.22;85.04;96676.22;5101340;28;20032;-94
2023/10/09 04:35:23;;;;;;;16.87;5.70;;;;;;;21.21;84.13;96678.09;5097991;28;20054;-94
2023/10/09 04:38:07;;;;;;;21.27;5.30;;;;;;;21.34;82.66;96675.34;5100528;28;20103;-94
2023/10/09 04:40:48;;;;;;;18.37;5.03;;;;;;;21.70;79.71;96675.72;5093019;28;20032;-93
2023/10/09 04:43:20;;;;;;;25.73;7.23;;;;;;;21.12;81.51;96679.38;5083602;28;20020;-91
2023/10/09 04:48:45;;;;;;;23.17;5.70;;;;;;;21.49;79.16;96677.72;5064909;28;20032;-92
2023/10/09 04:52:01;;;;;;;16.70;4.50;;;;;;;21.42;80.71;96677.75;5094185;28;20027;-92
2023/10/09 04:54:19;;;;;;;19.00;5.53;;;;;;;21.28;80.37;96688.75;5103656;28;20497;-92
2023/10/09 04:56:54;;;;;;;27.13;6.30;;;;;;;21.21;83.25;96675.41;5087245;28;20031;-92
2023/10/09 04:59:25;;;;;;;27.30;5.83;;;;;;;21.21;81.96;96674.59;5110299;28;20813;-92
2023/10/09 05:01:57;;;;;;;23.20;5.80;;;;;;;21.15;83.57;96673.59;5088267;28;20027;-92
2023/10/09 05:04:41;;;;;;;23.35;6.57;;;;;;;21.18;81.37;96675.84;5093385;28;20059;-92
2023/10/09 05:10:14;;;;;;;20.67;4.73;;;;;;;20.85;82.80;96674.16;5108716;28;20035;-93
2023/10/09 05:12:46;;;;;;;20.03;5.17;;;;;;;20.92;84.85;96682.16;5110969;28;20024;-93
2023/10/09 05:15:15;;;;;;;20.73;5.37;;;;;;;20.97;83.14;96676.19;5100311;28;20035;-92
2023/10/09 05:17:51;;;;;;;17.47;5.50;;;;;;;21.53;87.20;96673.59;5102920;28;20488;-88
2023/10/09 05:22:58;;;;;;;22.27;6.17;;;;;;;21.25;79.41;96676.59;5109815;28;20050;-90
2023/10/09 05:31:09;;;;;;;19.87;6.93;;;;;;;21.40;78.70;96677.16;5127735;28;20024;-87
2023/10/09 05:33:37;;;;;;;17.97;5.00;;;;;;;21.41;78.31;96675.31;5114363;28;20019;-87
2023/10/09 05:38:58;;;;;;;22.77;6.63;;;;;;;21.19;78.67;96678.31;5111548;28;20087;-88
2023/10/09 05:41:45;;;;;;;25.67;8.47;;;;;;;21.30;78.46;96684.81;5095178;28;20105;-89
2023/10/09 05:49:46;;;;;;;20.47;7.13;;;;;;;21.22;79.38;96686.91;5106574;28;20400;-90
2023/10/09 05:52:32;;;;;;;24.73;9.60;;;;;;;21.48;79.18;96680.63;5093055;28;20035;-90
2023/10/09 06:14:04;;;;;;;19.43;6.33;;;;;;;21.76;72.21;96683.66;5108989;28;20476;-89
2023/10/09 06:16:43;;;;;;;20.60;5.60;;;;;;;21.79;74.20;96683.22;5095065;28;20024;-89
2023/10/09 06:19:28;;;;;;;20.27;5.47;;;;;;;21.68;73.95;96678.59;5086633;28;20031;-85
2023/10/09 06:24:41;;;;;;;17.97;4.07;;;;;;;21.39;75.08;96683.56;5112409;28;20503;-85
2023/10/09 06:29:50;;;;;;;20.13;5.07;;;;;;;22.22;69.66;96687.81;5098317;28;20024;-85
2023/10/09 06:35:18;;;;;;;17.63;5.70;;;;;;;21.91;70.79;96698.59;5104910;28;20028;-85
2023/10/09 06:43:17;;;;;;;26.33;5.40;;;;;;;21.94;73.18;96695.50;5114320;28;20465;-86
2023/10/09 06:45:45;;;;;;;22.93;5.77;;;;;;;21.99;72.55;96692.94;5086081;28;20115;-86
2023/10/09 06:58:54;;;;;;;29.70;5.47;;;;;;;22.43;68.53;96688.41;5106666;28;20027;-86
2023/10/09 07:06:50;;;;;;;42.70;7.50;;;;;;;23.25;66.84;96697.75;5108476;28;20382;-86
2023/10/09 07:09:20;;;;;;;57.88;9.40;;;;;;;23.60;64.55;96696.19;5093735;28;20127;-85
2023/10/09 07:16:59;;;;;;;28.92;4.72;;;;;;;22.76;69.82;96688.03;5122996;28;20059;-84
2023/10/09 07:22:03;;;;;;;16.10;4.43;;;;;;;22.38;71.59;96693.66;5103642;28;20023;-86
2023/10/09 07:24:43;;;;;;;23.30;4.60;;;;;;;22.84;69.11;96709.19;5110256;28;20023;-86
2023/10/09 07:27:15;;;;;;;21.90;4.95;;;;;;;23.24;66.88;96706.03;5089459;28;20023;-86
2023/10/09 07:29:50;;;;;;;19.73;5.37;;;;;;;22.41;70.85;96718.13;5084658;28;20386;-86
2023/10/09 07:32:22;;;;;;;19.45;5.18;;;;;;;22.70;71.28;96711.22;5114593;28;20023;-86
2023/10/09 07:34:57;;;;;;;22.75;5.68;;;;;;;22.78;70.93;96710.09;5092343;28;20054;-86
2023/10/09 07:37:34;;;;;;;17.95;4.75;;;;;;;22.72;71.96;96709.13;5088050;28;20035;-86
2023/10/09 07:40:07;;;;;;;16.58;4.47;;;;;;;22.64;71.76;96714.78;5107608;27;20034;-86
2023/10/09 07:43:04;;;;;;;19.00;5.30;;;;;;;23.24;67.67;96708.72;5111786;28;20051;-86
2023/10/09 07:48:05;;;;;;;15.38;4.53;;;;;;;23.31;66.76;96717.50;5101977;27;20026;-85
2023/10/09 07:50:43;;;;;;;23.10;6.55;;;;;;;23.03;69.62;96710.00;5088660;28;20061;-86
2023/10/09 07:53:25;;;;;;;23.73;5.60;;;;;;;23.05;70.34;96710.63;5123158;27;20114;-86
2023/10/09 07:55:55;;;;;;;18.73;5.07;;;;;;;23.17;69.15;96719.53;5113668;28;20031;-86
2023/10/09 07:58:25;;;;;;;17.65;4.90;;;;;;;23.50;68.29;96726.28;5112307;28;20382;-86
2023/10/09 08:03:24;;;;;;;50.30;10.00;;;;;;;24.00;65.37;96724.06;5115575;28;20091;-85
2023/10/09 08:05:52;;;;;;;27.92;4.80;;;;;;;24.45;62.86;96725.41;5089778;28;20020;-86
2023/10/09 08:13:49;;;;;;;22.98;5.18;;;;;;;23.74;64.32;96738.78;5119517;27;20051;-85
2023/10/09 08:16:21;;;;;;;21.63;4.85;;;;;;;23.85;65.71;96725.59;5094005;28;20088;-85
2023/10/09 08:18:51;;;;;;;17.05;5.50;;;;;;;24.08;65.78;96725.63;5086240;28;20039;-85
2023/10/09 08:23:48;;;;;;;19.60;4.95;;;;;;;24.27;63.94;96728.19;5101085;28;20055;-85
2023/10/09 08:26:14;;;;;;;24.65;4.75;;;;;;;24.41;65.04;96729.59;5093185;28;20178;-86
2023/10/09 08:28:42;;;;;;;17.48;4.95;;;;;;;24.49;64.17;96731.13;5108939;28;20445;-85
2023/10/09 08:33:58;;;;;;;21.27;4.97;;;;;;;24.57;60.20;96730.75;5111263;28;20026;-85
2023/10/09 08:36:28;;;;;;;18.13;5.40;;;;;;;24.75;58.06;96737.88;5086773;28;20015;-85
2023/10/09 08:38:58;;;;;;;11.90;3.55;;;;;;;24.96;57.26;96739.94;5083081;28;20027;-85
2023/10/09 08:41:29;;;;;;;20.40;5.03;;;;;;;25.17;56.75;96741.19;5106310;28;20036;-86
2023/10/09 08:43:57;;;;;;;19.23;5.55;;;;;;;25.54;55.61;96741.59;5123695;27;20035;-86
2023/10/09 08:46:26;;;;;;;19.15;5.15;;;;;;;25.67;55.30;96745.06;5086936;28;20291;-87
2023/10/09 08:48:54;;;;;;;19.23;5.85;;;;;;;25.57;54.74;96743.81;5091819;28;20535;-85
2023/10/09 08:51:20;;;;;;;17.38;5.03;;;;;;;25.90;53.35;96747.66;5089350;28;20122;-86
2023/10/09 08:53:46;;;;;;;15.98;4.78;;;;;;;25.83;53.48;96744.31;5106227;28;20088;-86
2023/10/09 08:56:22;;;;;;;20.85;4.38;;;;;;;25.54;54.68;96741.59;5090590;28;20101;-86
2023/10/09 08:58:56;;;;;;;15.80;4.80;;;;;;;25.82;54.36;96743.50;5086279;28;20059;-86
2023/10/09 09:01:24;;;;;;;22.10;4.75;;;;;;;25.29;56.63;96741.97;5071708;28;20099;-86
2023/10/09 09:03:55;;;;;;;17.67;5.35;;;;;;;25.65;55.40;96742.59;5066928;28;20117;-86
2023/10/09 09:06:23;;;;;;;21.90;4.30;;;;;;;26.00;55.05;96755.91;5080217;28;20028;-86
2023/10/09 09:08:54;;;;;;;17.25;5.70;;;;;;;26.08;53.96;96760.88;5125109;27;20027;-87
2023/10/09 09:11:24;;;;;;;21.55;4.57;;;;;;;26.43;52.29;96765.22;5111038;28;20050;-86
2023/10/09 09:14:03;;;;;;;13.70;3.90;;;;;;;26.17;53.72;96758.59;5116167;27;20441;-86
2023/10/09 09:16:33;;;;;;;20.55;4.88;;;;;;;25.93;54.15;96759.84;5084636;28;20027;-87
2023/10/09 09:21:45;;;;;;;16.77;4.50;;;;;;;26.42;52.72;96758.16;5102004;28;20046;-86
2023/10/09 09:26:58;;;;;;;23.10;6.80;;;;;;;26.31;52.97;96759.09;5102277;28;20031;-87
2023/10/09 09:29:41;;;;;;;19.58;5.43;;;;;;;25.69;55.85;96761.78;5098265;28;20100;-86
2023/10/09 09:32:20;;;;;;;20.58;5.47;;;;;;;26.54;53.96;96760.81;5085253;28;20127;-86
2023/10/09 09:35:06;;;;;;;16.10;4.88;;;;;;;25.85;54.57;96763.72;5097960;28;20443;-86
2023/10/09 09:37:54;;;;;;;17.80;4.82;;;;;;;26.47;54.40;96770.94;5079111;28;20038;-86
2023/10/09 09:40:32;;;;;;;18.38;4.78;;;;;;;26.39;52.61;96764.09;5096214;28;20044;-86
2023/10/09 09:43:06;;;;;;;18.80;5.80;;;;;;;26.15;52.49;96763.41;5105205;28;20027;-86
2023/10/09 09:45:36;;;;;;;14.95;3.95;;;;;;;26.52;52.68;96763.75;5089517;28;20299;-87
2023/10/09 09:48:06;;;;;;;22.08;5.43;;;;;;;26.19;53.50;96764.59;5086821;28;20027;-85
2023/10/09 09:50:33;;;;;;;20.20;4.93;;;;;;;26.03;53.23;96766.19;5082238;28;20042;-85
2023/10/09 09:52:59;;;;;;;19.52;4.90;;;;;;;26.00;55.44;96769.38;5105908;28;20032;-86
2023/10/09 09:55:41;;;;;;;20.08;5.05;;;;;;;26.38;54.98;96770.50;5114191;28;20092;-86
2023/10/09 09:58:18;;;;;;;17.30;4.13;;;;;;;26.44;55.71;96769.53;5096140;28;20023;-87
2023/10/09 10:00:50;;;;;;;22.90;6.03;;;;;;;26.86;55.13;96779.88;5087602;28;20500;-86
2023/10/09 10:03:22;;;;;;;15.63;4.63;;;;;;;26.97;53.82;96775.44;5084211;28;20016;-87
2023/10/09 10:05:51;;;;;;;16.90;4.40;;;;;;;27.77;51.93;96779.38;5105348;28;20031;-88
2023/10/09 10:08:20;;;;;;;20.17;4.63;;;;;;;27.85;51.34;96776.19;5099513;28;20046;-88
2023/10/09 10:10:53;;;;;;;20.38;5.25;;;;;;;27.96;50.17;96777.91;5101620;28;20045;-86
2023/10/09 10:13:41;;;;;;;16.85;5.22;;;;;;;27.50;49.60;96758.53;5087133;28;20027;-86
2023/10/09 10:16:20;;;;;;;19.33;5.32;;;;;;;27.74;49.46;96763.63;5104481;28;20131;-85
2023/10/09 10:19:21;;;;;;;21.67;4.93;;;;;;;28.16;47.48;96763.75;5087177;28;20107;-85
2023/10/09 10:21:58;;;;;;;20.00;5.10;;;;;;;28.72;47.84;96765.25;5076199;28;20461;-86
2023/10/09 10:24:35;;;;;;;17.45;5.63;;;;;;;29.02;47.02;96761.91;5098039;28;20031;-86
2023/10/09 10:30:13;;;;;;;17.73;4.68;;;;;;;28.37;46.45;96753.06;5099107;28;20034;-84
2023/10/09 10:32:59;;;;;;;19.25;4.97;;;;;;;28.87;45.49;96751.78;5091304;28;20051;-84
2023/10/09 10:38:24;;;;;;;17.40;6.10;;;;;;;28.13;46.13;96750.72;5098966;28;20067;-86
2023/10/09 10:40:57;;;;;;;21.63;7.03;;;;;;;27.75;48.91;96754.44;5086515;28;20023;-89
2023/10/09 10:43:34;;;;;;;21.85;4.75;;;;;;;28.17;47.93;96751.06;5102416;28;20058;-85
2023/10/09 10:46:23;;;;;;;23.05;4.53;;;;;;;27.73;45.53;96752.00;5099440;28;20059;-85
2023/10/09 10:48:59;;;;;;;21.08;5.40;;;;;;;27.83;45.23;96759.41;5087848;28;20031;-85
2023/10/09 10:51:35;;;;;;;28.10;4.95;;;;;;;28.30;44.57;96761.41;5103063;28;20030;-84
2023/10/09 10:54:28;;;;;;;18.55;5.30;;;;;;;27.62;45.30;96761.06;5104893;28;20038;-85
2023/10/09 10:56:51;;;;;;;14.05;4.55;;;;;;;27.68;44.97;96757.34;5103431;28;20134;-85
2023/10/09 10:59:24;;;;;;;20.58;4.90;;;;;;;27.53;45.18;96765.28;5093677;28;20031;-82
2023/10/09 11:02:52;;;;;;;22.52;5.03;;;;;;;27.56;45.44;96761.28;5100582;28;20502;-85
2023/10/09 11:04:53;;;;;;;21.58;4.38;;;;;;;27.38;45.77;96751.63;5085043;28;20100;-85
2023/10/09 11:07:26;;;;;;;23.85;4.28;;;;;;;27.38;45.79;96759.75;5086305;28;20024;-85
2023/10/09 11:10:27;;;;;;;23.00;6.00;;;;;;;27.77;45.30;96756.91;5104835;28;20019;-85
2023/10/09 11:13:30;;;;;;;16.85;5.20;;;;;;;27.65;46.36;96751.66;5105852;28;20568;-85
2023/10/09 11:21:23;;;;;;;19.58;5.13;;;;;;;27.64;46.56;96741.91;5109931;28;20073;-85
2023/10/09 11:26:40;;;;;;;18.77;4.90;;;;;;;28.17;46.47;96748.34;5071361;28;20102;-84
2023/10/09 11:30:05;;;;;;;23.63;5.38;;;;;;;28.25;46.12;96750.56;5101347;28;20020;-85
2023/10/09 11:32:06;;;;;;;19.40;4.57;;;;;;;27.79;46.56;96752.88;5089772;28;20032;-84
2023/10/09 11:34:34;;;;;;;15.18;5.30;;;;;;;27.42;47.75;96768.97;5106532;28;20020;-85
2023/10/09 11:37:13;;;;;;;25.60;5.22;;;;;;;28.11;46.66;96771.00;5081299;28;20501;-84
2023/10/09 11:39:52;;;;;;;19.67;4.90;;;;;;;28.15;46.46;96759.41;5091126;28;20378;-85
2023/10/09 11:45:24;;;;;;;21.33;5.18;;;;;;;28.13;45.98;96766.97;5104575;28;20069;-84
2023/10/09 11:47:58;;;;;;;18.73;4.85;;;;;;;27.63;46.85;96764.59;5089211;28;20081;-85
2023/10/09 11:50:43;;;;;;;16.65;4.95;;;;;;;27.91;47.20;96748.13;5102924;28;20031;-85
2023/10/09 11:53:17;;;;;;;23.65;4.57;;;;;;;29.09;46.19;96738.09;5103322;28;20035;-85
2023/10/09 11:55:48;;;;;;;20.35;5.15;;;;;;;28.45;54.76;96727.47;5092660;28;20023;-86
2023/10/09 11:58:24;;;;;;;17.17;5.05;;;;;;;28.15;62.03;96737.78;5105806;28;20526;-84
2023/10/09 12:01:03;;;;;;;17.20;5.22;;;;;;;27.79;64.68;96739.38;5085707;28;20501;-84
2023/10/09 12:03:29;;;;;;;16.58;5.15;;;;;;;28.13;65.72;96736.41;5097538;28;20242;-84
2023/10/09 12:06:05;;;;;;;20.15;5.45;;;;;;;28.36;66.21;96733.31;5109518;28;20023;-84
2023/10/09 12:08:34;;;;;;;16.90;5.10;;;;;;;28.43;63.01;96731.22;5098004;28;20028;-84
2023/10/09 12:11:03;;;;;;;24.67;5.20;;;;;;;28.30;65.45;96733.53;5106640;28;20397;-85
2023/10/09 12:13:28;;;;;;;16.95;5.40;;;;;;;28.82;59.55;96725.50;5083590;28;20034;-85
2023/10/09 12:15:54;;;;;;;17.02;4.72;;;;;;;29.17;60.70;96726.75;5098835;28;20024;-84
2023/10/09 12:18:21;;;;;;;20.70;4.68;;;;;;;29.15;57.56;96728.91;5099659;28;20133;-84
2023/10/09 12:20:51;;;;;;;16.92;5.60;;;;;;;28.95;56.18;96718.00;5086996;28;20039;-84
2023/10/09 12:23:20;;;;;;;18.35;5.03;;;;;;;29.60;56.02;96716.59;5084727;28;20065;-85
2023/10/09 12:25:49;;;;;;;18.52;4.93;;;;;;;28.46;57.34;96719.06;5099335;28;20024;-85
2023/10/09 12:28:15;;;;;;;21.95;4.75;;;;;;;29.19;56.71;96718.38;5104632;28;20027;-85
2023/10/09 12:30:41;;;;;;;18.05;4.40;;;;;;;29.65;54.37;96713.91;5090047;28;20078;-85
2023/10/09 12:33:08;;;;;;;17.70;4.82;;;;;;;29.66;57.13;96707.38;5097860;28;20076;-85
2023/10/09 12:35:38;;;;;;;19.77;5.68;;;;;;;29.35;55.73;96707.31;5089712;28;20074;-85
2023/10/09 12:38:08;;;;;;;18.83;5.35;;;;;;;29.61;55.46;96704.66;5102273;28;20043;-85
2023/10/09 12:40:35;;;;;;;19.20;4.70;;;;;;;30.11;52.52;96694.91;5088972;28;20043;-85
2023/10/09 12:43:00;;;;;;;22.80;6.28;;;;;;;29.51;48.80;96685.63;5081707;28;20114;-84
2023/10/09 12:45:27;;;;;;;20.15;4.93;;;;;;;30.76;48.10;96671.47;5098794;28;20024;-84
2023/10/09 12:47:59;;;;;;;21.98;5.40;;;;;;;31.47;45.45;96653.16;5101116;28;20034;-85
2023/10/09 12:50:28;;;;;;;20.40;4.97;;;;;;;30.83;45.35;96649.44;5109331;28;20027;-85
2023/10/09 12:52:55;;;;;;;19.48;5.57;;;;;;;30.99;45.44;96639.31;5099956;28;20023;-85
2023/10/09 12:55:21;;;;;;;17.80;5.05;;;;;;;30.77;45.18;96629.63;5096778;28;20462;-84
2023/10/09 12:57:48;;;;;;;17.92;5.35;;;;;;;29.37;46.51;96625.75;5085841;28;20035;-84
2023/10/09 13:00:25;;;;;;;19.38;5.75;;;;;;;28.99;47.39;96627.03;5077275;28;20421;-84
2023/10/09 13:02:51;;;;;;;20.85;5.78;;;;;;;28.79;49.66;96634.00;5078188;28;20032;-85
2023/10/09 13:05:26;;;;;;;15.77;5.63;;;;;;;28.83;50.85;96639.69;5090001;28;20015;-85
2023/10/09 13:07:53;;;;;;;15.15;5.30;;;;;;;28.79;51.53;96639.41;5085254;28;20044;-85
2023/10/09 13:10:19;;;;;;;24.52;5.72;;;;;;;30.15;49.03;96643.63;5084370;28;20053;-85
2023/10/09 13:12:45;;;;;;;16.85;4.47;;;;;;;29.81;50.32;96642.34;5097777;28;20038;-84
2023/10/09 13:15:11;;;;;;;20.52;6.63;;;;;;;30.37;48.10;96654.19;5099827;28;20023;-84
2023/10/09 13:17:37;;;;;;;16.98;4.55;;;;;;;29.98;46.83;96649.34;5108574;28;20034;-84
2023/10/09 13:20:12;;;;;;;18.05;6.03;;;;;;;30.03;44.96;96649.34;5099236;28;20035;-84
2023/10/09 13:22:46;;;;;;;16.73;4.60;;;;;;;30.91;44.44;96656.19;5093100;28;20165;-84
2023/10/09 13:25:25;;;;;;;19.80;5.20;;;;;;;29.90;45.83;96658.03;5057518;28;20028;-85
2023/10/09 13:27:52;;;;;;;17.48;4.55;;;;;;;29.60;47.93;96654.25;5080259;28;20415;-84
2023/10/09 13:30:24;;;;;;;20.60;4.55;;;;;;;29.62;47.42;96662.94;5083660;28;20065;-84
2023/10/09 13:32:50;;;;;;;14.60;4.65;;;;;;;29.86;45.79;96662.38;5082432;28;20027;-84
2023/10/09 13:35:19;;;;;;;20.98;5.43;;;;;;;30.23;45.60;96665.63;5104640;28;20421;-84
2023/10/09 13:37:53;;;;;;;14.80;5.60;;;;;;;30.60;44.84;96656.28;5100703;28;20366;-84
2023/10/09 13:40:28;;;;;;;16.55;4.82;;;;;;;30.83;44.27;96654.88;5098855;28;20486;-84
2023/10/09 13:43:01;;;;;;;20.70;6.20;;;;;;;30.65;44.03;96650.03;5102976;28;20030;-84
2023/10/09 13:45:27;;;;;;;28.25;6.43;;;;;;;30.01;45.40;96662.38;5109745;28;20020;-84
2023/10/09 13:47:56;;;;;;;21.38;5.85;;;;;;;30.51;44.15;96647.09;5105972;28;20631;-84
2023/10/09 13:50:32;;;;;;;18.73;5.18;;;;;;;30.39;43.98;96643.88;5084296;28;20043;-84
2023/10/09 13:52:58;;;;;;;14.98;4.85;;;;;;;31.07;42.89;96636.00;5105792;28;20481;-84
2023/10/09 13:55:34;;;;;;;19.98;5.32;;;;;;;30.95;41.78;96636.38;5102733;28;20031;-84
2023/10/09 13:57:59;;;;;;;17.10;6.05;;;;;;;31.35;42.18;96633.69;5083912;28;20026;-84
2023/10/09 14:00:34;;;;;;;18.27;5.53;;;;;;;32.02;40.31;96642.94;5103477;28;20028;-84
2023/10/09 14:03:01;;;;;;;14.95;4.82;;;;;;;31.20;40.96;96634.56;5086787;28;20019;-84
2023/10/09 14:05:29;;;;;;;19.95;5.90;;;;;;;32.30;39.52;96626.91;5089733;28;20026;-83
2023/10/09 14:08:00;;;;;;;23.48;5.18;;;;;;;31.28;39.82;96627.72;5086118;28;20088;-84